sensor_id;sensor_type;location;lat;lon;timestamp;P1;durP1;ratioP1;P2;durP2;ratioP2
79798;SDS011;69283;48.024;11.090;2023-06-22T00:02:13;11.80;;;3.33;;
79798;SDS011;69283;48.024;11.090;2023-06-22T00:04:38;7.97;;;2.53;;
79798;SDS011;69283;48.024;11.090;2023-06-22T00:07:04;7.50;;;2.88;;
79798;SDS011;69283;48.024;11.090;2023-06-22T00:09:30;7.65;;;3.03;;
79798;SDS011;69283;48.024;11.090;2023-06-22T00:11:56;7.20;;;3.15;;
79798;SDS011;69283;48.024;11.090;2023-06-22T00:14:21;7.57;;;2.90;;
79798;SDS011;69283;48.024;11.090;2023-06-22T00:16:47;8.60;;;2.60;;
79798;SDS011;69283;48.024;11.090;2023-06-22T00:19:13;6.85;;;2.67;;
79798;SDS011;69283;48.024;11.090;2023-06-22T00:21:40;7.53;;;2.78;;
79798;SDS011;69283;48.024;11.090;2023-06-22T00:24:05;9.23;;;2.90;;
79798;SDS011;69283;48.024;11.090;2023-06-22T00:26:31;14.13;;;3.17;;
79798;SDS011;69283;48.024;11.090;2023-06-22T00:28:57;9.38;;;3.40;;
79798;SDS011;69283;48.024;11.090;2023-06-22T00:31:22;8.77;;;3.20;;
79798;SDS011;69283;48.024;11.090;2023-06-22T00:33:47;10.13;;;2.70;;
79798;SDS011;69283;48.024;11.090;2023-06-22T00:36:15;7.68;;;3.00;;
79798;SDS011;69283;48.024;11.090;2023-06-22T00:38:41;8.60;;;3.72;;
79798;SDS011;69283;48.024;11.090;2023-06-22T00:41:07;11.95;;;3.67;;
79798;SDS011;69283;48.024;11.090;2023-06-22T00:43:32;9.05;;;3.65;;
79798;SDS011;69283;48.024;11.090;2023-06-22T00:45:57;10.45;;;4.30;;
79798;SDS011;69283;48.024;11.090;2023-06-22T00:48:23;6.13;;;2.70;;
79798;SDS011;69283;48.024;11.090;2023-06-22T00:50:49;9.40;;;3.63;;
79798;SDS011;69283;48.024;11.090;2023-06-22T00:53:16;13.02;;;3.58;;
79798;SDS011;69283;48.024;11.090;2023-06-22T00:55:43;10.20;;;3.22;;
79798;SDS011;69283;48.024;11.090;2023-06-22T00:58:10;15.10;;;3.95;;
79798;SDS011;69283;48.024;11.090;2023-06-22T01:00:36;7.93;;;3.25;;
79798;SDS011;69283;48.024;11.090;2023-06-22T01:03:03;6.47;;;3.33;;
79798;SDS011;69283;48.024;11.090;2023-06-22T01:05:28;8.82;;;3.20;;
79798;SDS011;69283;48.024;11.090;2023-06-22T01:10:44;7.43;;;3.13;;
79798;SDS011;69283;48.024;11.090;2023-06-22T01:13:25;11.07;;;3.55;;
79798;SDS011;69283;48.024;11.090;2023-06-22T01:16:23;8.00;;;3.08;;
79798;SDS011;69283;48.024;11.090;2023-06-22T01:18:52;12.32;;;3.72;;
79798;SDS011;69283;48.024;11.090;2023-06-22T01:21:20;13.30;;;3.38;;
79798;SDS011;69283;48.024;11.090;2023-06-22T01:26:38;11.90;;;3.80;;
79798;SDS011;69283;48.024;11.090;2023-06-22T01:29:08;7.22;;;3.38;;
79798;SDS011;69283;48.024;11.090;2023-06-22T01:31:37;11.00;;;3.40;;
79798;SDS011;69283;48.024;11.090;2023-06-22T01:34:06;9.20;;;3.65;;
79798;SDS011;69283;48.024;11.090;2023-06-22T01:36:33;12.30;;;3.90;;
79798;SDS011;69283;48.024;11.090;2023-06-22T01:39:00;10.77;;;4.20;;
79798;SDS011;69283;48.024;11.090;2023-06-22T01:41:28;11.13;;;3.88;;
79798;SDS011;69283;48.024;11.090;2023-06-22T01:43:55;9.52;;;3.67;;
79798;SDS011;69283;48.024;11.090;2023-06-22T01:46:21;6.47;;;3.28;;
79798;SDS011;69283;48.024;11.090;2023-06-22T01:48:47;11.85;;;4.07;;
79798;SDS011;69283;48.024;11.090;2023-06-22T01:51:13;16.08;;;4.07;;
79798;SDS011;69283;48.024;11.090;2023-06-22T01:53:39;9.55;;;4.03;;
79798;SDS011;69283;48.024;11.090;2023-06-22T01:56:05;15.02;;;4.60;;
79798;SDS011;69283;48.024;11.090;2023-06-22T01:58:30;10.77;;;3.85;;
79798;SDS011;69283;48.024;11.090;2023-06-22T02:01:31;10.73;;;4.93;;
79798;SDS011;69283;48.024;11.090;2023-06-22T02:04:06;12.32;;;4.25;;
79798;SDS011;69283;48.024;11.090;2023-06-22T02:06:37;12.02;;;3.90;;
79798;SDS011;69283;48.024;11.090;2023-06-22T02:09:08;10.75;;;4.13;;
79798;SDS011;69283;48.024;11.090;2023-06-22T02:11:37;14.95;;;4.35;;
79798;SDS011;69283;48.024;11.090;2023-06-22T02:14:05;8.55;;;3.95;;
79798;SDS011;69283;48.024;11.090;2023-06-22T02:16:31;9.13;;;4.13;;
79798;SDS011;69283;48.024;11.090;2023-06-22T02:18:57;10.80;;;4.50;;
79798;SDS011;69283;48.024;11.090;2023-06-22T02:21:28;9.90;;;4.35;;
79798;SDS011;69283;48.024;11.090;2023-06-22T02:23:54;11.02;;;4.15;;
79798;SDS011;69283;48.024;11.090;2023-06-22T02:26:19;11.13;;;4.68;;
79798;SDS011;69283;48.024;11.090;2023-06-22T02:28:44;11.68;;;3.90;;
79798;SDS011;69283;48.024;11.090;2023-06-22T02:31:10;10.38;;;3.75;;
79798;SDS011;69283;48.024;11.090;2023-06-22T02:33:36;13.55;;;4.15;;
79798;SDS011;69283;48.024;11.090;2023-06-22T02:36:01;17.00;;;6.90;;
79798;SDS011;69283;48.024;11.090;2023-06-22T02:38:30;15.18;;;4.50;;
79798;SDS011;69283;48.024;11.090;2023-06-22T02:41:01;13.18;;;4.40;;
79798;SDS011;69283;48.024;11.090;2023-06-22T02:43:27;11.60;;;4.65;;
79798;SDS011;69283;48.024;11.090;2023-06-22T02:45:53;18.15;;;4.63;;
79798;SDS011;69283;48.024;11.090;2023-06-22T02:48:18;8.07;;;4.30;;
79798;SDS011;69283;48.024;11.090;2023-06-22T02:50:44;10.80;;;4.30;;
79798;SDS011;69283;48.024;11.090;2023-06-22T02:53:09;11.07;;;4.13;;
79798;SDS011;69283;48.024;11.090;2023-06-22T02:55:34;10.38;;;4.45;;
79798;SDS011;69283;48.024;11.090;2023-06-22T02:58:00;14.23;;;4.73;;
79798;SDS011;69283;48.024;11.090;2023-06-22T03:02:55;7.82;;;3.67;;
79798;SDS011;69283;48.024;11.090;2023-06-22T03:05:21;11.93;;;3.95;;
79798;SDS011;69283;48.024;11.090;2023-06-22T03:07:46;9.32;;;4.68;;
79798;SDS011;69283;48.024;11.090;2023-06-22T03:10:12;12.95;;;4.93;;
79798;SDS011;69283;48.024;11.090;2023-06-22T03:12:38;14.30;;;5.00;;
79798;SDS011;69283;48.024;11.090;2023-06-22T03:15:07;10.57;;;4.15;;
79798;SDS011;69283;48.024;11.090;2023-06-22T03:17:34;9.38;;;3.95;;
79798;SDS011;69283;48.024;11.090;2023-06-22T03:20:01;10.65;;;5.13;;
79798;SDS011;69283;48.024;11.090;2023-06-22T03:22:36;13.32;;;4.57;;
79798;SDS011;69283;48.024;11.090;2023-06-22T03:25:04;10.18;;;4.57;;
79798;SDS011;69283;48.024;11.090;2023-06-22T03:27:36;10.30;;;4.68;;
79798;SDS011;69283;48.024;11.090;2023-06-22T03:30:02;11.00;;;4.75;;
79798;SDS011;69283;48.024;11.090;2023-06-22T03:32:27;10.90;;;4.43;;
79798;SDS011;69283;48.024;11.090;2023-06-22T03:34:55;13.80;;;4.53;;
79798;SDS011;69283;48.024;11.090;2023-06-22T03:37:23;10.07;;;4.63;;
79798;SDS011;69283;48.024;11.090;2023-06-22T03:39:54;9.68;;;4.75;;
79798;SDS011;69283;48.024;11.090;2023-06-22T03:42:20;16.27;;;5.90;;
79798;SDS011;69283;48.024;11.090;2023-06-22T03:44:46;10.23;;;4.80;;
79798;SDS011;69283;48.024;11.090;2023-06-22T03:47:11;13.15;;;5.05;;
79798;SDS011;69283;48.024;11.090;2023-06-22T03:49:37;11.93;;;4.65;;
79798;SDS011;69283;48.024;11.090;2023-06-22T03:52:02;11.37;;;5.33;;
79798;SDS011;69283;48.024;11.090;2023-06-22T03:54:28;12.80;;;6.03;;
79798;SDS011;69283;48.024;11.090;2023-06-22T03:56:54;10.75;;;4.90;;
79798;SDS011;69283;48.024;11.090;2023-06-22T03:59:21;12.52;;;4.20;;
79798;SDS011;69283;48.024;11.090;2023-06-22T04:01:46;11.23;;;5.00;;
79798;SDS011;69283;48.024;11.090;2023-06-22T04:04:11;10.77;;;4.13;;
79798;SDS011;69283;48.024;11.090;2023-06-22T04:06:37;11.50;;;4.60;;
79798;SDS011;69283;48.024;11.090;2023-06-22T04:09:03;7.75;;;3.20;;
79798;SDS011;69283;48.024;11.090;2023-06-22T04:11:28;12.98;;;4.53;;
79798;SDS011;69283;48.024;11.090;2023-06-22T04:13:53;13.73;;;4.60;;
79798;SDS011;69283;48.024;11.090;2023-06-22T04:16:19;7.10;;;3.53;;
79798;SDS011;69283;48.024;11.090;2023-06-22T04:18:44;8.93;;;3.63;;
79798;SDS011;69283;48.024;11.090;2023-06-22T04:21:10;8.13;;;3.35;;
79798;SDS011;69283;48.024;11.090;2023-06-22T04:23:35;8.50;;;3.78;;
79798;SDS011;69283;48.024;11.090;2023-06-22T04:26:00;15.60;;;3.57;;
79798;SDS011;69283;48.024;11.090;2023-06-22T04:28:25;9.93;;;3.40;;
79798;SDS011;69283;48.024;11.090;2023-06-22T04:30:51;12.25;;;5.00;;
79798;SDS011;69283;48.024;11.090;2023-06-22T04:33:16;12.02;;;3.83;;
79798;SDS011;69283;48.024;11.090;2023-06-22T04:35:44;7.63;;;3.53;;
79798;SDS011;69283;48.024;11.090;2023-06-22T04:38:11;11.88;;;3.90;;
79798;SDS011;69283;48.024;11.090;2023-06-22T04:40:38;11.45;;;3.33;;
79798;SDS011;69283;48.024;11.090;2023-06-22T04:43:03;12.27;;;3.97;;
79798;SDS011;69283;48.024;11.090;2023-06-22T04:45:31;8.52;;;3.63;;
79798;SDS011;69283;48.024;11.090;2023-06-22T04:47:56;10.02;;;4.45;;
79798;SDS011;69283;48.024;11.090;2023-06-22T04:50:22;8.30;;;3.95;;
79798;SDS011;69283;48.024;11.090;2023-06-22T04:52:48;9.90;;;4.00;;
79798;SDS011;69283;48.024;11.090;2023-06-22T04:55:14;8.02;;;3.97;;
79798;SDS011;69283;48.024;11.090;2023-06-22T04:57:46;10.25;;;3.50;;
79798;SDS011;69283;48.024;11.090;2023-06-22T05:00:16;9.40;;;4.65;;
79798;SDS011;69283;48.024;11.090;2023-06-22T05:02:43;8.65;;;3.55;;
79798;SDS011;69283;48.024;11.090;2023-06-22T05:05:10;8.90;;;3.78;;
79798;SDS011;69283;48.024;11.090;2023-06-22T05:07:38;8.80;;;3.85;;
79798;SDS011;69283;48.024;11.090;2023-06-22T05:10:04;9.57;;;3.90;;
79798;SDS011;69283;48.024;11.090;2023-06-22T05:12:30;8.70;;;3.35;;
79798;SDS011;69283;48.024;11.090;2023-06-22T05:14:56;8.82;;;3.83;;
79798;SDS011;69283;48.024;11.090;2023-06-22T05:17:21;10.98;;;4.20;;
79798;SDS011;69283;48.024;11.090;2023-06-22T05:19:47;11.88;;;3.63;;
79798;SDS011;69283;48.024;11.090;2023-06-22T05:22:16;9.00;;;3.95;;
79798;SDS011;69283;48.024;11.090;2023-06-22T05:24:41;9.63;;;4.38;;
79798;SDS011;69283;48.024;11.090;2023-06-22T05:27:07;8.98;;;4.35;;
79798;SDS011;69283;48.024;11.090;2023-06-22T05:29:33;7.57;;;3.67;;
79798;SDS011;69283;48.024;11.090;2023-06-22T05:31:58;13.43;;;4.17;;
79798;SDS011;69283;48.024;11.090;2023-06-22T05:34:23;10.30;;;3.70;;
79798;SDS011;69283;48.024;11.090;2023-06-22T05:36:48;9.83;;;4.27;;
79798;SDS011;69283;48.024;11.090;2023-06-22T05:39:14;10.30;;;4.23;;
79798;SDS011;69283;48.024;11.090;2023-06-22T05:41:40;12.82;;;4.20;;
79798;SDS011;69283;48.024;11.090;2023-06-22T05:44:06;7.43;;;3.78;;
79798;SDS011;69283;48.024;11.090;2023-06-22T05:46:31;11.02;;;5.07;;
79798;SDS011;69283;48.024;11.090;2023-06-22T05:48:56;10.18;;;3.92;;
79798;SDS011;69283;48.024;11.090;2023-06-22T05:51:22;11.03;;;4.03;;
79798;SDS011;69283;48.024;11.090;2023-06-22T05:53:48;13.95;;;5.07;;
79798;SDS011;69283;48.024;11.090;2023-06-22T05:56:17;10.23;;;4.85;;
79798;SDS011;69283;48.024;11.090;2023-06-22T05:58:43;11.73;;;4.63;;
79798;SDS011;69283;48.024;11.090;2023-06-22T06:01:08;8.90;;;3.95;;
79798;SDS011;69283;48.024;11.090;2023-06-22T06:03:34;11.85;;;4.07;;
79798;SDS011;69283;48.024;11.090;2023-06-22T06:06:05;12.55;;;4.60;;
79798;SDS011;69283;48.024;11.090;2023-06-22T06:08:31;13.40;;;4.88;;
79798;SDS011;69283;48.024;11.090;2023-06-22T06:10:57;11.40;;;4.75;;
79798;SDS011;69283;48.024;11.090;2023-06-22T06:13:22;12.52;;;4.75;;
79798;SDS011;69283;48.024;11.090;2023-06-22T06:15:48;11.05;;;5.28;;
79798;SDS011;69283;48.024;11.090;2023-06-22T06:18:16;13.15;;;5.40;;
79798;SDS011;69283;48.024;11.090;2023-06-22T06:20:42;15.20;;;4.88;;
79798;SDS011;69283;48.024;11.090;2023-06-22T06:23:08;9.32;;;4.90;;
79798;SDS011;69283;48.024;11.090;2023-06-22T06:25:33;13.88;;;5.72;;
79798;SDS011;69283;48.024;11.090;2023-06-22T06:27:58;12.57;;;4.82;;
79798;SDS011;69283;48.024;11.090;2023-06-22T06:30:29;12.52;;;5.13;;
79798;SDS011;69283;48.024;11.090;2023-06-22T06:32:55;14.20;;;4.85;;
79798;SDS011;69283;48.024;11.090;2023-06-22T06:35:21;13.18;;;5.10;;
79798;SDS011;69283;48.024;11.090;2023-06-22T06:37:49;15.73;;;5.43;;
79798;SDS011;69283;48.024;11.090;2023-06-22T06:40:15;12.63;;;5.28;;
79798;SDS011;69283;48.024;11.090;2023-06-22T06:42:43;15.15;;;4.85;;
79798;SDS011;69283;48.024;11.090;2023-06-22T06:45:11;17.33;;;5.15;;
79798;SDS011;69283;48.024;11.090;2023-06-22T06:47:38;13.05;;;5.07;;
79798;SDS011;69283;48.024;11.090;2023-06-22T06:50:06;13.05;;;5.63;;
79798;SDS011;69283;48.024;11.090;2023-06-22T06:52:32;15.13;;;5.25;;
79798;SDS011;69283;48.024;11.090;2023-06-22T06:54:58;14.75;;;4.97;;
79798;SDS011;69283;48.024;11.090;2023-06-22T06:57:24;13.30;;;5.07;;
79798;SDS011;69283;48.024;11.090;2023-06-22T06:59:53;12.05;;;5.80;;
79798;SDS011;69283;48.024;11.090;2023-06-22T07:02:22;13.98;;;5.85;;
79798;SDS011;69283;48.024;11.090;2023-06-22T07:04:57;12.38;;;4.97;;
79798;SDS011;69283;48.024;11.090;2023-06-22T07:07:22;15.65;;;6.15;;
79798;SDS011;69283;48.024;11.090;2023-06-22T07:09:49;15.82;;;5.55;;
79798;SDS011;69283;48.024;11.090;2023-06-22T07:12:14;13.50;;;5.80;;
79798;SDS011;69283;48.024;11.090;2023-06-22T07:14:40;19.10;;;5.28;;
79798;SDS011;69283;48.024;11.090;2023-06-22T07:17:06;13.98;;;5.45;;
79798;SDS011;69283;48.024;11.090;2023-06-22T07:19:32;14.85;;;5.75;;
79798;SDS011;69283;48.024;11.090;2023-06-22T07:21:58;13.43;;;5.93;;
79798;SDS011;69283;48.024;11.090;2023-06-22T07:24:25;16.95;;;5.93;;
79798;SDS011;69283;48.024;11.090;2023-06-22T07:26:52;14.35;;;5.35;;
79798;SDS011;69283;48.024;11.090;2023-06-22T07:29:17;13.80;;;5.53;;
79798;SDS011;69283;48.024;11.090;2023-06-22T07:34:12;16.05;;;6.13;;
79798;SDS011;69283;48.024;11.090;2023-06-22T07:36:41;13.02;;;5.68;;
79798;SDS011;69283;48.024;11.090;2023-06-22T07:39:07;11.27;;;5.63;;
79798;SDS011;69283;48.024;11.090;2023-06-22T07:41:35;13.77;;;5.45;;
79798;SDS011;69283;48.024;11.090;2023-06-22T07:44:03;13.70;;;5.45;;
79798;SDS011;69283;48.024;11.090;2023-06-22T07:46:31;17.40;;;5.43;;
79798;SDS011;69283;48.024;11.090;2023-06-22T07:48:59;15.20;;;4.97;;
79798;SDS011;69283;48.024;11.090;2023-06-22T07:51:25;16.60;;;6.57;;
79798;SDS011;69283;48.024;11.090;2023-06-22T07:53:50;21.25;;;6.43;;
79798;SDS011;69283;48.024;11.090;2023-06-22T07:56:16;15.30;;;5.80;;
79798;SDS011;69283;48.024;11.090;2023-06-22T07:58:45;19.10;;;6.45;;
79798;SDS011;69283;48.024;11.090;2023-06-22T08:01:16;13.43;;;5.60;;
79798;SDS011;69283;48.024;11.090;2023-06-22T08:03:44;13.13;;;5.78;;
79798;SDS011;69283;48.024;11.090;2023-06-22T08:06:12;12.70;;;5.70;;
79798;SDS011;69283;48.024;11.090;2023-06-22T08:08:37;14.73;;;5.45;;
79798;SDS011;69283;48.024;11.090;2023-06-22T08:11:05;15.18;;;5.95;;
79798;SDS011;69283;48.024;11.090;2023-06-22T08:13:34;17.88;;;5.85;;
79798;SDS011;69283;48.024;11.090;2023-06-22T08:15:59;14.45;;;5.75;;
79798;SDS011;69283;48.024;11.090;2023-06-22T08:18:27;14.30;;;5.68;;
79798;SDS011;69283;48.024;11.090;2023-06-22T08:20:53;11.07;;;5.55;;
79798;SDS011;69283;48.024;11.090;2023-06-22T08:23:20;14.63;;;6.03;;
79798;SDS011;69283;48.024;11.090;2023-06-22T08:25:45;20.17;;;6.75;;
79798;SDS011;69283;48.024;11.090;2023-06-22T08:28:34;12.38;;;5.65;;
79798;SDS011;69283;48.024;11.090;2023-06-22T08:31:09;11.50;;;6.10;;
79798;SDS011;69283;48.024;11.090;2023-06-22T08:33:52;14.70;;;5.97;;
79798;SDS011;69283;48.024;11.090;2023-06-22T08:36:29;18.73;;;5.90;;
79798;SDS011;69283;48.024;11.090;2023-06-22T08:39:16;12.13;;;5.50;;
79798;SDS011;69283;48.024;11.090;2023-06-22T08:41:42;14.68;;;6.30;;
79798;SDS011;69283;48.024;11.090;2023-06-22T08:44:07;14.52;;;5.53;;
79798;SDS011;69283;48.024;11.090;2023-06-22T08:46:34;12.98;;;5.65;;
79798;SDS011;69283;48.024;11.090;2023-06-22T08:49:10;11.35;;;5.65;;
79798;SDS011;69283;48.024;11.090;2023-06-22T08:51:35;13.10;;;5.75;;
79798;SDS011;69283;48.024;11.090;2023-06-22T08:54:03;14.75;;;6.38;;
79798;SDS011;69283;48.024;11.090;2023-06-22T08:56:33;15.45;;;6.10;;
79798;SDS011;69283;48.024;11.090;2023-06-22T08:59:09;12.10;;;6.10;;
79798;SDS011;69283;48.024;11.090;2023-06-22T09:01:37;13.10;;;6.45;;
79798;SDS011;69283;48.024;11.090;2023-06-22T09:04:02;16.25;;;5.78;;
79798;SDS011;69283;48.024;11.090;2023-06-22T09:06:29;12.98;;;6.40;;
79798;SDS011;69283;48.024;11.090;2023-06-22T09:08:56;15.13;;;5.65;;
79798;SDS011;69283;48.024;11.090;2023-06-22T09:11:36;14.85;;;6.18;;
79798;SDS011;69283;48.024;11.090;2023-06-22T09:14:03;18.52;;;6.72;;
79798;SDS011;69283;48.024;11.090;2023-06-22T09:16:34;12.80;;;6.25;;
79798;SDS011;69283;48.024;11.090;2023-06-22T09:19:00;16.08;;;6.05;;
79798;SDS011;69283;48.024;11.090;2023-06-22T09:21:28;15.07;;;6.20;;
79798;SDS011;69283;48.024;11.090;2023-06-22T09:23:54;18.73;;;5.85;;
79798;SDS011;69283;48.024;11.090;2023-06-22T09:26:19;14.40;;;5.90;;
79798;SDS011;69283;48.024;11.090;2023-06-22T09:28:45;13.75;;;5.90;;
79798;SDS011;69283;48.024;11.090;2023-06-22T09:31:13;18.35;;;6.40;;
79798;SDS011;69283;48.024;11.090;2023-06-22T09:33:42;15.15;;;6.72;;
79798;SDS011;69283;48.024;11.090;2023-06-22T09:36:07;16.70;;;6.40;;
79798;SDS011;69283;48.024;11.090;2023-06-22T09:38:42;15.40;;;6.35;;
79798;SDS011;69283;48.024;11.090;2023-06-22T09:41:08;19.35;;;7.07;;
79798;SDS011;69283;48.024;11.090;2023-06-22T09:43:33;14.63;;;5.85;;
79798;SDS011;69283;48.024;11.090;2023-06-22T09:46:01;16.40;;;6.45;;
79798;SDS011;69283;48.024;11.090;2023-06-22T09:48:27;17.95;;;6.53;;
79798;SDS011;69283;48.024;11.090;2023-06-22T09:50:56;21.02;;;6.32;;
79798;SDS011;69283;48.024;11.090;2023-06-22T09:53:21;16.00;;;6.80;;
79798;SDS011;69283;48.024;11.090;2023-06-22T09:55:47;16.38;;;6.57;;
79798;SDS011;69283;48.024;11.090;2023-06-22T09:58:12;13.77;;;5.93;;
79798;SDS011;69283;48.024;11.090;2023-06-22T10:00:45;13.02;;;5.93;;
79798;SDS011;69283;48.024;11.090;2023-06-22T10:03:11;20.15;;;6.72;;
79798;SDS011;69283;48.024;11.090;2023-06-22T10:05:36;14.73;;;6.22;;
79798;SDS011;69283;48.024;11.090;2023-06-22T10:08:02;21.95;;;7.07;;
79798;SDS011;69283;48.024;11.090;2023-06-22T10:10:27;18.55;;;7.38;;
79798;SDS011;69283;48.024;11.090;2023-06-22T10:12:56;14.52;;;5.88;;
79798;SDS011;69283;48.024;11.090;2023-06-22T10:15:22;14.60;;;7.60;;
79798;SDS011;69283;48.024;11.090;2023-06-22T10:17:48;15.13;;;5.65;;
79798;SDS011;69283;48.024;11.090;2023-06-22T10:20:14;17.05;;;7.18;;
79798;SDS011;69283;48.024;11.090;2023-06-22T10:22:40;20.10;;;6.03;;
79798;SDS011;69283;48.024;11.090;2023-06-22T10:25:07;17.45;;;7.35;;
79798;SDS011;69283;48.024;11.090;2023-06-22T10:27:33;16.80;;;6.57;;
79798;SDS011;69283;48.024;11.090;2023-06-22T10:29:58;14.15;;;6.60;;
79798;SDS011;69283;48.024;11.090;2023-06-22T10:32:27;17.42;;;5.90;;
79798;SDS011;69283;48.024;11.090;2023-06-22T10:34:58;15.05;;;6.63;;
79798;SDS011;69283;48.024;11.090;2023-06-22T10:37:23;17.73;;;6.22;;
79798;SDS011;69283;48.024;11.090;2023-06-22T10:39:49;15.82;;;6.38;;
79798;SDS011;69283;48.024;11.090;2023-06-22T10:42:14;15.95;;;5.97;;
79798;SDS011;69283;48.024;11.090;2023-06-22T10:44:40;12.15;;;5.70;;
79798;SDS011;69283;48.024;11.090;2023-06-22T10:47:08;13.00;;;5.90;;
79798;SDS011;69283;48.024;11.090;2023-06-22T10:49:33;15.18;;;5.90;;
79798;SDS011;69283;48.024;11.090;2023-06-22T10:52:01;19.30;;;6.75;;
79798;SDS011;69283;48.024;11.090;2023-06-22T10:54:29;16.08;;;7.40;;
79798;SDS011;69283;48.024;11.090;2023-06-22T10:56:57;15.48;;;6.10;;
79798;SDS011;69283;48.024;11.090;2023-06-22T10:59:23;13.40;;;5.57;;
79798;SDS011;69283;48.024;11.090;2023-06-22T11:01:48;16.55;;;6.72;;
79798;SDS011;69283;48.024;11.090;2023-06-22T11:04:14;20.35;;;6.25;;
79798;SDS011;69283;48.024;11.090;2023-06-22T11:06:49;12.80;;;6.60;;
79798;SDS011;69283;48.024;11.090;2023-06-22T11:09:17;13.60;;;5.72;;
79798;SDS011;69283;48.024;11.090;2023-06-22T11:11:50;16.70;;;6.38;;
79798;SDS011;69283;48.024;11.090;2023-06-22T11:14:51;15.73;;;6.47;;
79798;SDS011;69283;48.024;11.090;2023-06-22T11:20:41;17.33;;;6.47;;
79798;SDS011;69283;48.024;11.090;2023-06-22T11:23:17;20.00;;;6.95;;
79798;SDS011;69283;48.024;11.090;2023-06-22T11:26:22;20.42;;;6.35;;
79798;SDS011;69283;48.024;11.090;2023-06-22T11:29:18;12.20;;;5.88;;
79798;SDS011;69283;48.024;11.090;2023-06-22T11:32:15;19.00;;;6.47;;
79798;SDS011;69283;48.024;11.090;2023-06-22T11:34:40;18.25;;;6.00;;
79798;SDS011;69283;48.024;11.090;2023-06-22T11:39:56;12.93;;;5.72;;
79798;SDS011;69283;48.024;11.090;2023-06-22T11:42:22;12.02;;;5.72;;
79798;SDS011;69283;48.024;11.090;2023-06-22T11:44:49;15.20;;;6.10;;
79798;SDS011;69283;48.024;11.090;2023-06-22T11:47:14;11.65;;;5.45;;
79798;SDS011;69283;48.024;11.090;2023-06-22T11:49:40;16.73;;;5.97;;
79798;SDS011;69283;48.024;11.090;2023-06-22T11:52:06;13.50;;;5.15;;
79798;SDS011;69283;48.024;11.090;2023-06-22T11:54:32;17.67;;;5.75;;
79798;SDS011;69283;48.024;11.090;2023-06-22T11:56:57;14.07;;;6.22;;
79798;SDS011;69283;48.024;11.090;2023-06-22T11:59:23;17.40;;;6.07;;
79798;SDS011;69283;48.024;11.090;2023-06-22T12:01:48;11.82;;;5.72;;
79798;SDS011;69283;48.024;11.090;2023-06-22T12:04:16;9.70;;;5.47;;
79798;SDS011;69283;48.024;11.090;2023-06-22T12:06:41;15.55;;;6.72;;
79798;SDS011;69283;48.024;11.090;2023-06-22T12:11:34;14.35;;;5.82;;
79798;SDS011;69283;48.024;11.090;2023-06-22T12:13:59;17.15;;;5.70;;
79798;SDS011;69283;48.024;11.090;2023-06-22T12:16:27;17.88;;;5.80;;
79798;SDS011;69283;48.024;11.090;2023-06-22T12:19:02;21.40;;;5.80;;
79798;SDS011;69283;48.024;11.090;2023-06-22T12:23:54;23.75;;;5.93;;
79798;SDS011;69283;48.024;11.090;2023-06-22T12:26:19;11.52;;;5.30;;
79798;SDS011;69283;48.024;11.090;2023-06-22T12:28:44;20.58;;;6.55;;
79798;SDS011;69283;48.024;11.090;2023-06-22T12:31:12;17.80;;;5.32;;
79798;SDS011;69283;48.024;11.090;2023-06-22T12:33:38;18.13;;;5.95;;
79798;SDS011;69283;48.024;11.090;2023-06-22T12:36:05;19.70;;;6.80;;
79798;SDS011;69283;48.024;11.090;2023-06-22T12:38:34;15.60;;;6.28;;
79798;SDS011;69283;48.024;11.090;2023-06-22T12:41:02;16.10;;;6.63;;
79798;SDS011;69283;48.024;11.090;2023-06-22T12:43:29;15.88;;;5.97;;
79798;SDS011;69283;48.024;11.090;2023-06-22T12:46:31;15.93;;;6.10;;
79798;SDS011;69283;48.024;11.090;2023-06-22T12:49:02;17.02;;;6.07;;
79798;SDS011;69283;48.024;11.090;2023-06-22T12:51:29;15.60;;;6.78;;
79798;SDS011;69283;48.024;11.090;2023-06-22T12:54:00;17.60;;;6.95;;
79798;SDS011;69283;48.024;11.090;2023-06-22T12:56:28;13.90;;;6.18;;
79798;SDS011;69283;48.024;11.090;2023-06-22T12:58:53;14.48;;;7.22;;
79798;SDS011;69283;48.024;11.090;2023-06-22T13:01:29;11.63;;;5.43;;
79798;SDS011;69283;48.024;11.090;2023-06-22T13:04:02;18.63;;;6.20;;
79798;SDS011;69283;48.024;11.090;2023-06-22T13:06:30;15.30;;;6.88;;
79798;SDS011;69283;48.024;11.090;2023-06-22T13:08:55;13.25;;;5.70;;
79798;SDS011;69283;48.024;11.090;2023-06-22T13:11:24;18.75;;;6.43;;
79798;SDS011;69283;48.024;11.090;2023-06-22T13:13:49;17.67;;;6.78;;
79798;SDS011;69283;48.024;11.090;2023-06-22T13:16:24;18.58;;;5.85;;
79798;SDS011;69283;48.024;11.090;2023-06-22T13:18:59;20.33;;;6.53;;
79798;SDS011;69283;48.024;11.090;2023-06-22T13:21:24;16.10;;;6.45;;
79798;SDS011;69283;48.024;11.090;2023-06-22T13:23:50;17.42;;;5.78;;
79798;SDS011;69283;48.024;11.090;2023-06-22T13:26:15;16.77;;;6.50;;
79798;SDS011;69283;48.024;11.090;2023-06-22T13:28:41;16.45;;;6.05;;
79798;SDS011;69283;48.024;11.090;2023-06-22T13:31:08;20.35;;;6.68;;
79798;SDS011;69283;48.024;11.090;2023-06-22T13:33:34;18.35;;;6.80;;
79798;SDS011;69283;48.024;11.090;2023-06-22T13:36:02;17.13;;;5.78;;
79798;SDS011;69283;48.024;11.090;2023-06-22T13:38:28;14.35;;;5.68;;
79798;SDS011;69283;48.024;11.090;2023-06-22T13:40:56;21.10;;;6.97;;
79798;SDS011;69283;48.024;11.090;2023-06-22T13:43:26;25.67;;;6.60;;
79798;SDS011;69283;48.024;11.090;2023-06-22T13:45:55;18.00;;;5.78;;
79798;SDS011;69283;48.024;11.090;2023-06-22T13:48:20;13.95;;;6.18;;
79798;SDS011;69283;48.024;11.090;2023-06-22T13:50:50;16.23;;;6.20;;
79798;SDS011;69283;48.024;11.090;2023-06-22T13:53:18;13.57;;;5.82;;
79798;SDS011;69283;48.024;11.090;2023-06-22T13:55:44;16.65;;;6.03;;
79798;SDS011;69283;48.024;11.090;2023-06-22T13:58:12;16.00;;;5.65;;
79798;SDS011;69283;48.024;11.090;2023-06-22T14:00:38;14.50;;;5.78;;
79798;SDS011;69283;48.024;11.090;2023-06-22T14:03:03;21.33;;;5.65;;
79798;SDS011;69283;48.024;11.090;2023-06-22T14:05:28;12.65;;;5.47;;
79798;SDS011;69283;48.024;11.090;2023-06-22T14:07:54;18.00;;;6.40;;
79798;SDS011;69283;48.024;11.090;2023-06-22T14:10:19;12.90;;;5.80;;
79798;SDS011;69283;48.024;11.090;2023-06-22T14:12:45;13.23;;;5.68;;
79798;SDS011;69283;48.024;11.090;2023-06-22T14:15:11;18.42;;;6.45;;
79798;SDS011;69283;48.024;11.090;2023-06-22T14:17:38;18.05;;;6.00;;
79798;SDS011;69283;48.024;11.090;2023-06-22T14:20:06;18.15;;;6.10;;
79798;SDS011;69283;48.024;11.090;2023-06-22T14:22:34;17.17;;;6.10;;
79798;SDS011;69283;48.024;11.090;2023-06-22T14:25:01;20.02;;;6.95;;
79798;SDS011;69283;48.024;11.090;2023-06-22T14:27:29;17.90;;;6.15;;
79798;SDS011;69283;48.024;11.090;2023-06-22T14:29:54;19.50;;;6.97;;
79798;SDS011;69283;48.024;11.090;2023-06-22T14:32:22;17.20;;;6.32;;
79798;SDS011;69283;48.024;11.090;2023-06-22T14:34:55;15.40;;;6.25;;
79798;SDS011;69283;48.024;11.090;2023-06-22T14:37:28;12.40;;;5.20;;
79798;SDS011;69283;48.024;11.090;2023-06-22T14:39:53;16.85;;;5.60;;
79798;SDS011;69283;48.024;11.090;2023-06-22T14:42:19;21.77;;;6.03;;
79798;SDS011;69283;48.024;11.090;2023-06-22T14:44:47;17.63;;;5.28;;
79798;SDS011;69283;48.024;11.090;2023-06-22T14:47:14;17.77;;;4.30;;
79798;SDS011;69283;48.024;11.090;2023-06-22T14:49:43;15.23;;;4.55;;